AirNav   ATP
 
 1020 users online  

KTFP McCampbell-Porter Airport
Ingleside, Texas, USA

GOING TO INGLESIDE?


FAA INFORMATION EFFECTIVE 24 MAY 2018

Location

FAA Identifier: TFP
Lat/Long: 27-54-46.9000N / 097-12-41.4000W
27-54.781667N / 097-12.690000W
27.9130278 / -97.2115000
(estimated)
Elevation: 17.6 ft. / 5 m (estimated)
Variation: 07E (1985)
From city: 2 miles N of INGLESIDE, TX
Time zone: UTC -5 (UTC -6 during Standard Time)
Zip code: 78336

Airport Operations

Airport use: Open to the public
Activation date: 03/1991
Control tower: no
ARTCC: HOUSTON CENTER
FSS: SAN ANGELO FLIGHT SERVICE STATION
NOTAMs facility: SJT (NOTAM-D service available)
Attendance: 0800-1800
Wind indicator: lighted
Segmented circle: yes
Lights: MIRL RY 13/31 PRESET LOW INTST; TO INCR INTST ACTVT - CTAF (122.7).
Beacon: white-green (lighted land airport)
Operates sunset to sunrise.

Airport Communications

CTAF/UNICOM: 122.7
WX AWOS-3: 118.775 (361-758-8961)
CORPUS APPROACH: 120.9
CORPUS DEPARTURE: 120.9
WX AWOS-3 at RAS (9 nm SE): 118.425 (361-749-0537)
WX ASOS at RKP (14 nm NE): 119.275 (361-729-2372)
WX ASOS at CRP (18 nm SW): PHONE 361-289-0191
WX AWOS-1 at T69 (19 nm NW): 118.25 (361-364-1844)

Nearby radio navigation aids

VOR radial/distance  VOR name  Freq  Var
CRPr078/12.4CORPUS CHRISTI VORTAC115.5009E
NGPr012/14.3TRUAX VORTAC114.0006E

 
NDB name  Hdg/Dist  Freq  Var  ID
MELLON RANCH175/22.037506EMNO -- -. ---

Airport Services

Fuel available: 100LL JET-A
FUEL SELF-SERVICE.
Parking: hangars and tiedowns
Airframe service: MAJOR
Powerplant service: MAJOR

Runway Information

Runway 13/31

Dimensions: 5000 x 75 ft. / 1524 x 23 m
Surface: asphalt, in good condition
Runway edge lights: medium intensity
RUNWAY 13  RUNWAY 31
Latitude: 27-55.096700N27-54.466995N
Longitude: 097-12.989438W097-12.389185W
Elevation: 15.0 ft.13.2 ft.
Traffic pattern: leftleft
Runway heading: 133 magnetic, 140 true313 magnetic, 320 true
Markings: nonprecision, in good conditionnonprecision, in good condition
Visual slope indicator: 2-light PAPI on left (3.00 degrees glide path)2-light PAPI on left (3.00 degrees glide path)
Touchdown point: yes, no lightsyes, no lights

Airport Ownership and Management from official FAA records

Ownership: Publicly-owned
Owner: SAN PATRICIO COUNTY
400 WEST SINTON ST.
SINTON, TX 78387
Phone 361-758-2000
Manager: PAUL LEHNERT
3141 FM 3512
ARANSAS PASS, TX 78336
Phone (361) 758-5018
ALT PH# 361-222-8417.

Airport Operational Statistics

Aircraft based on the field: 19
Single engine airplanes: 18
Multi engine airplanes: 1
    
Aircraft operations: avg 85/day *
48% local general aviation
32% transient general aviation
19% military
* for 12-month period ending 09 March 2017

Additional Remarks

FOR CD CTC CRP APCH AT 361-299-4230.

Instrument Procedures

NOTE: All procedures below are presented as PDF files. If you need a reader for these files, you should download the free Adobe Reader.

NOT FOR NAVIGATION. Please procure official charts for flight.
FAA instrument procedures published for use from 24 May 2018 at 0901Z to 21 June 2018 at 0900Z.

 
IAPs - Instrument Approach Procedures
RNAV (GPS) RWY 13   download (210KB)
RNAV (GPS) RWY 31   download (212KB)
NOTE: Special Alternate Minimums apply   download (29KB)

Other nearby airports with instrument procedures:

KRAS - Mustang Beach Airport (9 nm SE)
KRKP - Aransas County Airport (14 nm NE)
KNGP - Corpus Christi Naval Air Station/Truax Field (14 nm S)
KCRP - Corpus Christi International Airport (18 nm SW)
T69 - Alfred C 'Bubba' Thomas Airport (19 nm NW)
 
Loc | Ops | Rwys | IFR | FBO | Links
Com | Nav | Svcs | Stats | Notes

AirNav Hotels Sweepstakes
 
Area around KTFP (McCampbell-Porter Airport)
 
Road maps at: MapQuest Bing Google
 
Aerial photo
WARNING: Photo may not be current or correct
Aerial photo of KTFP (McCampbell-Porter Airport)
Do you have a better or more recent aerial photo of McCampbell-Porter Airport that you would like to share? If so, please send us your photo.

 
Sectional chart

 
Airport diagram
CAUTION: Diagram may not be current
Diagram of KTFP (McCampbell-Porter Airport)
 
Airport distance calculator
Flying to McCampbell-Porter Airport? Find the distance to fly.

From to KTFP

Sunrise and sunset
Times for 19-Jun-2018
 Local
(UTC-5)
 Zulu
(UTC)
Morning civil twilight06:0711:07
Sunrise06:3411:34
Sunset20:2601:26
Evening civil twilight20:5301:53

Current date and time
Zulu (UTC)  20-Jun-2018 00:29:54
Local (UTC-5)  19-Jun-2018 19:29:54
 
METAR
KTFP 200015Z AUTO 15010G15KT 10SM SCT015 BKN023 OVC044 27/25 A2976 RMK AO2 T02720250 PNO
KRAS 
9nm SE 
200015Z AUTO 11017G23KT 10SM BKN012 OVC017 27/25 A2978 RMK AO2 T02750247
KRKP 
13nm NE 
200007Z AUTO 12016G24KT 7SM SCT014 SCT022 27/24 A2977 RMK AO2 T02720244
KNGP 
14nm S 
200016Z 12018KT 3SM RA BR SCT007 BKN013 OVC020 27/27 A2975 RMK AO2 WSHFT 0001 WR// T2 SET P0042 T02720267
KCRP 
18nm SW 
192358Z 17005KT 10SM -RA FEW014 BKN025 BKN038 BKN130 OVC200 27/25 A2975 RMK AO2 CB DSNT N SE S MOV N TCU DSNT W NW P0000 T02670250
TAF
KNGP 
14nm S 
1923/2023 15011KT 9999 VCTS SCT020CB BKN040 BKN110 BKN250 QNH2972INS TEMPO 1923/2001 VRB15G25KT 3200 RA BR SCT010 BKN014 OVC030 TEMPO 2001/2003 VRB20G30KT 2000 +TSRA BR SCT008 BKN012CB OVC025 FM200300 16012KT 9999 VCSH SCT012 BKN025 BKN050 OVC150 QNH2972INS TEMPO 2003/2009 VRB18G25KT 3200 RA BR FEW008 BKN012 OVC025 TEMPO 2009/2012 VRB15G25KT 3200 RA BR BKN010 OVC020 FM201200 15011KT 9999 VCTS SCT015 BKN025CB OVC040 QNH2969INS TEMPO 2012/2017 VRB20G30KT 1600 +TSRA BR SCT006 BKN012CB OVC025 FM2017
KCRP 
18nm SW 
192059Z 1921/2018 13010KT 6SM SHRA BR SCT015 BKN035 OVC100 FM192200 13014G19KT P6SM VCSH SCT035 BKN050 FM200300 13009KT 6SM -SHRA BR BKN020 OVC250 FM200600 14008KT 5SM -SHRA BR BKN025 BKN040 TEMPO 2006/2010 2SM -TSRA BR OVC015CB FM201000 14009KT 6SM -RA BR OVC030
NOTAMs
Click for the latest NOTAMs
NOTAMs are issued by the DoD/FAA and will open in a separate window not controlled by AirNav.

 

 
 

FBO, Fuel Providers, and Aircraft Ground Support

  
 Business Name 
 
 Contact 
 
 Services / Description 
 
Fuel Prices
 
Comments
  
Corpus Christi Jet Center UNICOM 122.70
361-758-2000
[web site]
[email]
We will match KCRP contract fuel rates!
More info and photos of Corpus Christi Jet Center
Avfuel
100LL Jet A
FS $4.80 $4.50 
SS $4.15 $4.25 
 Updated 11-Jun-2018
 
   6 read write
FS=Full service
SS=Self service
Update Fuel Prices
 

Would you like to see your business listed on this page?

 If your business provides an interesting product or service to pilots, flight crews, aircraft, or users of the McCampbell-Porter Airport, you should consider listing it here.  To start the listing process, click on the button below
 
Add a business
 

Other Pages about McCampbell-Porter Airport

Update a link
 
Copyright © AirNav, LLC. All rights reserved. Privacy Policy  Contact